Aviation Digital Data Service (ADDS)

Output produced by METARs form (1512 UTC 20 March 2019)
found at http://www.aviationweather.gov/metar/data/
 
METAR text: SARI 201500Z 18004KT 9999 FEW050 SCT100 OVC200 23/21 Q1013
Conditions at: SARI (IGUAZU/CATARATAS, AR) observed 1500 UTC 20 March 2019
Temperature: 23.0°C (73°F)
Dewpoint: 21.0°C (70°F) [RH = 89%]
Pressure (altimeter): 29.91 inches Hg (1013.0 mb)
Winds: from the S (180 degrees) at 5 MPH (4 knots; 2.1 m/s)
Visibility: 6 or more miles (10+ km)
Ceiling: 20000 feet AGL
Clouds: few clouds at 5000 feet AGL
scattered clouds at 10000 feet AGL
overcast cloud deck at 20000 feet AGL
Weather: no significant weather observed at this time

METAR text: SARI 201400Z 20004KT 9999 FEW050CB BKN100 OVC200 23/21 Q1013
Conditions at: SARI (IGUAZU/CATARATAS, AR) observed 1400 UTC 20 March 2019
Temperature: 23.0°C (73°F)
Dewpoint: 21.0°C (70°F) [RH = 89%]
Pressure (altimeter): 29.91 inches Hg (1013.0 mb)
Winds: from the SSW (200 degrees) at 5 MPH (4 knots; 2.1 m/s)
Visibility: 6 or more miles (10+ km)
Ceiling: 10000 feet AGL
Clouds: few clouds at 5000 feet AGL
broken clouds at 10000 feet AGL
overcast cloud deck at 20000 feet AGL
Weather: no significant weather observed at this time

METAR text: SARI 201300Z 18003KT 9999 FEW050CB BKN100 OVC200 23/21 Q13
Conditions at: SARI (IGUAZU/CATARATAS, AR) observed 1300 UTC 20 March 2019
Temperature: 23.0°C (73°F)
Dewpoint: 21.0°C (70°F) [RH = 89%]
Pressure (altimeter): missing
Winds: from the S (180 degrees) at 3 MPH (3 knots; 1.5 m/s)
Visibility: 6 or more miles (10+ km)
Ceiling: 10000 feet AGL
Clouds: few clouds at 5000 feet AGL
broken clouds at 10000 feet AGL
overcast cloud deck at 20000 feet AGL
Weather: no significant weather observed at this time

METAR text: SARI 201200Z 20004KT 9999 FEW050CB BKN100 OVC200 22/21 Q1013
Conditions at: SARI (IGUAZU/CATARATAS, AR) observed 1200 UTC 20 March 2019
Temperature: 22.0°C (72°F)
Dewpoint: 21.0°C (70°F) [RH = 94%]
Pressure (altimeter): 29.91 inches Hg (1013.0 mb)
Winds: from the SSW (200 degrees) at 5 MPH (4 knots; 2.1 m/s)
Visibility: 6 or more miles (10+ km)
Ceiling: 10000 feet AGL
Clouds: few clouds at 5000 feet AGL
broken clouds at 10000 feet AGL
overcast cloud deck at 20000 feet AGL
Weather: no significant weather observed at this time

METAR text: SARI 201120Z 20005KT 9999 FEW050CB SCT100 OVC200 22/21 Q1012
Conditions at: SARI (IGUAZU/CATARATAS, AR) observed 1120 UTC 20 March 2019
Temperature: 22.0°C (72°F)
Dewpoint: 21.0°C (70°F) [RH = 94%]
Pressure (altimeter): 29.88 inches Hg (1012.0 mb)
Winds: from the SSW (200 degrees) at 6 MPH (5 knots; 2.6 m/s)
Visibility: 6 or more miles (10+ km)
Ceiling: 20000 feet AGL
Clouds: few clouds at 5000 feet AGL
scattered clouds at 10000 feet AGL
overcast cloud deck at 20000 feet AGL
Weather: no significant weather observed at this time

METAR text: SARI 201100Z 20005KT 9999 FEW030 BKN100 OVC200 22/21 Q1012
Conditions at: SARI (IGUAZU/CATARATAS, AR) observed 1100 UTC 20 March 2019
Temperature: 22.0°C (72°F)
Dewpoint: 21.0°C (70°F) [RH = 94%]
Pressure (altimeter): 29.88 inches Hg (1012.0 mb)
Winds: from the SSW (200 degrees) at 6 MPH (5 knots; 2.6 m/s)
Visibility: 6 or more miles (10+ km)
Ceiling: 10000 feet AGL
Clouds: few clouds at 3000 feet AGL
broken clouds at 10000 feet AGL
overcast cloud deck at 20000 feet AGL
Weather: no significant weather observed at this time

METAR text: SARI 201000Z 18005KT CAVOK 22/21 Q1010
Conditions at: SARI (IGUAZU/CATARATAS, AR) observed 1000 UTC 20 March 2019
Temperature: 22.0°C (72°F)
Dewpoint: 21.0°C (70°F) [RH = 94%]
Pressure (altimeter): 29.82 inches Hg (1010.0 mb)
Winds: from the S (180 degrees) at 6 MPH (5 knots; 2.6 m/s)
Visibility: 6 or more miles (10+ km)
Ceiling: ceiling and visibility are OK
Clouds: unknown
Weather: no significant weather observed at this time

METAR text: SARI 200900Z 00000KT CAVOK 21/20 Q1011
Conditions at: SARI (IGUAZU/CATARATAS, AR) observed 0900 UTC 20 March 2019
Temperature: 21.0°C (70°F)
Dewpoint: 20.0°C (68°F) [RH = 94%]
Pressure (altimeter): 29.85 inches Hg (1011.0 mb)
Winds: calm
Visibility: 6 or more miles (10+ km)
Ceiling: ceiling and visibility are OK
Clouds: unknown
Weather: no significant weather observed at this time

METAR text: SARI 200800Z 00000KT CAVOK 22/21 Q1010
Conditions at: SARI (IGUAZU/CATARATAS, AR) observed 0800 UTC 20 March 2019
Temperature: 22.0°C (72°F)
Dewpoint: 21.0°C (70°F) [RH = 94%]
Pressure (altimeter): 29.82 inches Hg (1010.0 mb)
Winds: calm
Visibility: 6 or more miles (10+ km)
Ceiling: ceiling and visibility are OK
Clouds: unknown
Weather: no significant weather observed at this time

METAR text: SARI 200700Z 00000KT CAVOK 22/21 Q1010
Conditions at: SARI (IGUAZU/CATARATAS, AR) observed 0700 UTC 20 March 2019
Temperature: 22.0°C (72°F)
Dewpoint: 21.0°C (70°F) [RH = 94%]
Pressure (altimeter): 29.82 inches Hg (1010.0 mb)
Winds: calm
Visibility: 6 or more miles (10+ km)
Ceiling: ceiling and visibility are OK
Clouds: unknown
Weather: no significant weather observed at this time

METAR text: SARI 200600Z 00000KT CAVOK 22/21 Q1011
Conditions at: SARI (IGUAZU/CATARATAS, AR) observed 0600 UTC 20 March 2019
Temperature: 22.0°C (72°F)
Dewpoint: 21.0°C (70°F) [RH = 94%]
Pressure (altimeter): 29.85 inches Hg (1011.0 mb)
Winds: calm
Visibility: 6 or more miles (10+ km)
Ceiling: ceiling and visibility are OK
Clouds: unknown
Weather: no significant weather observed at this time

METAR text: SARI 200500Z 00000KT CAVOK 22/22 Q1011
Conditions at: SARI (IGUAZU/CATARATAS, AR) observed 0500 UTC 20 March 2019
Temperature: 22.0°C (72°F)
Dewpoint: 22.0°C (72°F) [RH = 100%]
Pressure (altimeter): 29.85 inches Hg (1011.0 mb)
Winds: calm
Visibility: 6 or more miles (10+ km)
Ceiling: ceiling and visibility are OK
Clouds: unknown
Weather: no significant weather observed at this time

METAR text: SARI 200400Z 00000KT CAVOK 22/21 Q1011
Conditions at: SARI (IGUAZU/CATARATAS, AR) observed 0400 UTC 20 March 2019
Temperature: 22.0°C (72°F)
Dewpoint: 21.0°C (70°F) [RH = 94%]
Pressure (altimeter): 29.85 inches Hg (1011.0 mb)
Winds: calm
Visibility: 6 or more miles (10+ km)
Ceiling: ceiling and visibility are OK
Clouds: unknown
Weather: no significant weather observed at this time

METAR text: SARI 200300Z 00000KT CAVOK 22/21 Q1011
Conditions at: SARI (IGUAZU/CATARATAS, AR) observed 0300 UTC 20 March 2019
Temperature: 22.0°C (72°F)
Dewpoint: 21.0°C (70°F) [RH = 94%]
Pressure (altimeter): 29.85 inches Hg (1011.0 mb)
Winds: calm
Visibility: 6 or more miles (10+ km)
Ceiling: ceiling and visibility are OK
Clouds: unknown
Weather: no significant weather observed at this time

METAR text: SARI 200200Z 20005KT CAVOK 22/21 Q1011
Conditions at: SARI (IGUAZU/CATARATAS, AR) observed 0200 UTC 20 March 2019
Temperature: 22.0°C (72°F)
Dewpoint: 21.0°C (70°F) [RH = 94%]
Pressure (altimeter): 29.85 inches Hg (1011.0 mb)
Winds: from the SSW (200 degrees) at 6 MPH (5 knots; 2.6 m/s)
Visibility: 6 or more miles (10+ km)
Ceiling: ceiling and visibility are OK
Clouds: unknown
Weather: no significant weather observed at this time

METAR text: SARI 200100Z 00000KT CAVOK 23/22 Q1012
Conditions at: SARI (IGUAZU/CATARATAS, AR) observed 0100 UTC 20 March 2019
Temperature: 23.0°C (73°F)
Dewpoint: 22.0°C (72°F) [RH = 94%]
Pressure (altimeter): 29.88 inches Hg (1012.0 mb)
Winds: calm
Visibility: 6 or more miles (10+ km)
Ceiling: ceiling and visibility are OK
Clouds: unknown
Weather: no significant weather observed at this time

METAR text: SARI 200000Z 00000KT CAVOK 23/22 Q1011
Conditions at: SARI (IGUAZU/CATARATAS, AR) observed 0000 UTC 20 March 2019
Temperature: 23.0°C (73°F)
Dewpoint: 22.0°C (72°F) [RH = 94%]
Pressure (altimeter): 29.85 inches Hg (1011.0 mb)
Winds: calm
Visibility: 6 or more miles (10+ km)
Ceiling: ceiling and visibility are OK
Clouds: unknown
Weather: no significant weather observed at this time

METAR text: SARI 192300Z 00000KT CAVOK 24/22 Q1010
Conditions at: SARI (IGUAZU/CATARATAS, AR) observed 2300 UTC 19 March 2019
Temperature: 24.0°C (75°F)
Dewpoint: 22.0°C (72°F) [RH = 89%]
Pressure (altimeter): 29.82 inches Hg (1010.0 mb)
Winds: calm
Visibility: 6 or more miles (10+ km)
Ceiling: ceiling and visibility are OK
Clouds: unknown
Weather: no significant weather observed at this time

METAR text: SARI 192200Z 00000KT 9999 FEW040 SCT200 24/23 Q1010
Conditions at: SARI (IGUAZU/CATARATAS, AR) observed 2200 UTC 19 March 2019
Temperature: 24.0°C (75°F)
Dewpoint: 23.0°C (73°F) [RH = 94%]
Pressure (altimeter): 29.82 inches Hg (1010.0 mb)
Winds: calm
Visibility: 6 or more miles (10+ km)
Ceiling: at least 12,000 feet AGL
Clouds: few clouds at 4000 feet AGL
scattered clouds at 20000 feet AGL
Weather: no significant weather observed at this time

METAR text: SARI 192100Z 00000KT 9999 FEW040 28/22 Q1010
Conditions at: SARI (IGUAZU/CATARATAS, AR) observed 2100 UTC 19 March 2019
Temperature: 28.0°C (82°F)
Dewpoint: 22.0°C (72°F) [RH = 70%]
Pressure (altimeter): 29.82 inches Hg (1010.0 mb)
Winds: calm
Visibility: 6 or more miles (10+ km)
Ceiling: at least 12,000 feet AGL
Clouds: few clouds at 4000 feet AGL
Weather: no significant weather observed at this time

METAR text: SARI 192000Z 00000KT 9999 FEW040 SCT100 28/22 Q1010
Conditions at: SARI (IGUAZU/CATARATAS, AR) observed 2000 UTC 19 March 2019
Temperature: 28.0°C (82°F)
Dewpoint: 22.0°C (72°F) [RH = 70%]
Pressure (altimeter): 29.82 inches Hg (1010.0 mb)
Winds: calm
Visibility: 6 or more miles (10+ km)
Ceiling: at least 12,000 feet AGL
Clouds: few clouds at 4000 feet AGL
scattered clouds at 10000 feet AGL
Weather: no significant weather observed at this time

METAR text: SARI 191900Z 00000KT 9999 SCT025 SCT200 27/21 Q1010
Conditions at: SARI (IGUAZU/CATARATAS, AR) observed 1900 UTC 19 March 2019
Temperature: 27.0°C (81°F)
Dewpoint: 21.0°C (70°F) [RH = 70%]
Pressure (altimeter): 29.82 inches Hg (1010.0 mb)
Winds: calm
Visibility: 6 or more miles (10+ km)
Ceiling: at least 12,000 feet AGL
Clouds: scattered clouds at 2500 feet AGL
scattered clouds at 20000 feet AGL
Weather: no significant weather observed at this time

METAR text: SARI 191800Z 00000KT 9999 BKN025 SCT200 27/21 Q1011
Conditions at: SARI (IGUAZU/CATARATAS, AR) observed 1800 UTC 19 March 2019
Temperature: 27.0°C (81°F)
Dewpoint: 21.0°C (70°F) [RH = 70%]
Pressure (altimeter): 29.85 inches Hg (1011.0 mb)
Winds: calm
Visibility: 6 or more miles (10+ km)
Ceiling: 2500 feet AGL
Clouds: broken clouds at 2500 feet AGL
scattered clouds at 20000 feet AGL
Weather: no significant weather observed at this time

METAR text: SARI 191700Z 20002KT 9999 BKN025 SCT200 26/22 Q1011
Conditions at: SARI (IGUAZU/CATARATAS, AR) observed 1700 UTC 19 March 2019
Temperature: 26.0°C (79°F)
Dewpoint: 22.0°C (72°F) [RH = 79%]
Pressure (altimeter): 29.85 inches Hg (1011.0 mb)
Winds: from the SSW (200 degrees) at 2 MPH (2 knots; 1.0 m/s)
Visibility: 6 or more miles (10+ km)
Ceiling: 2500 feet AGL
Clouds: broken clouds at 2500 feet AGL
scattered clouds at 20000 feet AGL
Weather: no significant weather observed at this time

METAR text: SARI 191600Z 23003KT 9999 BKN025 26/21 Q1012
Conditions at: SARI (IGUAZU/CATARATAS, AR) observed 1600 UTC 19 March 2019
Temperature: 26.0°C (79°F)
Dewpoint: 21.0°C (70°F) [RH = 74%]
Pressure (altimeter): 29.88 inches Hg (1012.0 mb)
Winds: from the SW (230 degrees) at 3 MPH (3 knots; 1.5 m/s)
Visibility: 6 or more miles (10+ km)
Ceiling: 2500 feet AGL
Clouds: broken clouds at 2500 feet AGL
Weather: no significant weather observed at this time

METAR text: SARI 191500Z VRB03KT 9999 BKN025 SCT200 25/21 Q1013
Conditions at: SARI (IGUAZU/CATARATAS, AR) observed 1500 UTC 19 March 2019
Temperature: 25.0°C (77°F)
Dewpoint: 21.0°C (70°F) [RH = 79%]
Pressure (altimeter): 29.91 inches Hg (1013.0 mb)
Winds: variable direction winds at 3 MPH (3 knots; 1.5 m/s)
Visibility: 6 or more miles (10+ km)
Ceiling: 2500 feet AGL
Clouds: broken clouds at 2500 feet AGL
scattered clouds at 20000 feet AGL
Weather: no significant weather observed at this time

METAR text: SARI 191400Z 14003KT 9999 BKN015 23/21 Q1013
Conditions at: SARI (IGUAZU/CATARATAS, AR) observed 1400 UTC 19 March 2019
Temperature: 23.0°C (73°F)
Dewpoint: 21.0°C (70°F) [RH = 89%]
Pressure (altimeter): 29.91 inches Hg (1013.0 mb)
Winds: from the SE (140 degrees) at 3 MPH (3 knots; 1.5 m/s)
Visibility: 6 or more miles (10+ km)
Ceiling: 1500 feet AGL
Clouds: broken clouds at 1500 feet AGL
Weather: no significant weather observed at this time

METAR text: SARI 191330Z 11002KT 9999 BKN008 23/21 Q1013
Conditions at: SARI (IGUAZU/CATARATAS, AR) observed 1330 UTC 19 March 2019
Temperature: 23.0°C (73°F)
Dewpoint: 21.0°C (70°F) [RH = 89%]
Pressure (altimeter): 29.91 inches Hg (1013.0 mb)
Winds: from the ESE (110 degrees) at 2 MPH (2 knots; 1.0 m/s)
Visibility: 6 or more miles (10+ km)
Ceiling: 800 feet AGL
Clouds: broken clouds at 800 feet AGL
Weather: no significant weather observed at this time

METAR text: SARI 191300Z 36002KT 5000 BR OVC005 22/21 Q1013
Conditions at: SARI (IGUAZU/CATARATAS, AR) observed 1300 UTC 19 March 2019
Temperature: 22.0°C (72°F)
Dewpoint: 21.0°C (70°F) [RH = 94%]
Pressure (altimeter): 29.91 inches Hg (1013.0 mb)
Winds: from the N (360 degrees) at 2 MPH (2 knots; 1.0 m/s)
Visibility: 3 miles ( 5 km)
Ceiling: 500 feet AGL
Clouds: overcast cloud deck at 500 feet AGL
Weather: BR  (mist)

METAR text: SARI 191243Z 09002KT 1500 BR OVC003 22/22 Q1013
Conditions at: SARI (IGUAZU/CATARATAS, AR) observed 1243 UTC 19 March 2019
Temperature: 22.0°C (72°F)
Dewpoint: 22.0°C (72°F) [RH = 100%]
Pressure (altimeter): 29.91 inches Hg (1013.0 mb)
Winds: from the E (90 degrees) at 2 MPH (2 knots; 1.0 m/s)
Visibility: 0.93 miles (1.50 km)
Ceiling: 300 feet AGL
Clouds: overcast cloud deck at 300 feet AGL
Weather: BR  (mist)

METAR text: SARI 191230Z VRB02KT 0800 BCFG OVC002 22/22 Q1012
Conditions at: SARI (IGUAZU/CATARATAS, AR) observed 1230 UTC 19 March 2019
Temperature: 22.0°C (72°F)
Dewpoint: 22.0°C (72°F) [RH = 100%]
Pressure (altimeter): 29.88 inches Hg (1012.0 mb)
Winds: variable direction winds at 2 MPH (2 knots; 1.0 m/s)
Visibility: 0.50 miles (0.80 km)
Ceiling: 200 feet AGL
Clouds: overcast cloud deck at 200 feet AGL
Weather: BCFG  (patches of fog)

METAR text: SARI 191200Z 18003KT 0400 FG OVC002 21/21 Q1012
Conditions at: SARI (IGUAZU/CATARATAS, AR) observed 1200 UTC 19 March 2019
Temperature: 21.0°C (70°F)
Dewpoint: 21.0°C (70°F) [RH = 100%]
Pressure (altimeter): 29.88 inches Hg (1012.0 mb)
Winds: from the S (180 degrees) at 3 MPH (3 knots; 1.5 m/s)
Visibility: 0.25 miles (0.40 km)
Ceiling: 200 feet AGL
Clouds: overcast cloud deck at 200 feet AGL
Weather: FG  (fog)

METAR text: SARI 191100Z 20002KT 0200 FG OVC001 20/20 Q1012
Conditions at: SARI (IGUAZU/CATARATAS, AR) observed 1100 UTC 19 March 2019
Temperature: 20.0°C (68°F)
Dewpoint: 20.0°C (68°F) [RH = 100%]
Pressure (altimeter): 29.88 inches Hg (1012.0 mb)
Winds: from the SSW (200 degrees) at 2 MPH (2 knots; 1.0 m/s)
Visibility: 0.12 miles (0.19 km)
Ceiling: 100 feet AGL
Clouds: overcast cloud deck at 100 feet AGL
Weather: FG  (fog)

METAR text: SARI 191000Z 16002KT 0100 FG OVC001 19/19 Q1011
Conditions at: SARI (IGUAZU/CATARATAS, AR) observed 1000 UTC 19 March 2019
Temperature: 19.0°C (66°F)
Dewpoint: 19.0°C (66°F) [RH = 100%]
Pressure (altimeter): 29.85 inches Hg (1011.0 mb)
Winds: from the SSE (160 degrees) at 2 MPH (2 knots; 1.0 m/s)
Visibility: 0.06 miles (0.10 km)
Ceiling: 100 feet AGL
Clouds: overcast cloud deck at 100 feet AGL
Weather: FG  (fog)

METAR text: SARI 190900Z 09002KT 0500 FG NSC 19/19 Q1010
Conditions at: SARI (IGUAZU/CATARATAS, AR) observed 0900 UTC 19 March 2019
Temperature: 19.0°C (66°F)
Dewpoint: 19.0°C (66°F) [RH = 100%]
Pressure (altimeter): 29.82 inches Hg (1010.0 mb)
Winds: from the E (90 degrees) at 2 MPH (2 knots; 1.0 m/s)
Visibility: 0.31 miles (0.50 km)
Ceiling: at least 12,000 feet AGL
Clouds: sky clear below 12,000 feet AGL
Weather: FG  (fog)

METAR text: SARI 190800Z 00000KT 0500 FG NSC 20/20 Q1010
Conditions at: SARI (IGUAZU/CATARATAS, AR) observed 0800 UTC 19 March 2019
Temperature: 20.0°C (68°F)
Dewpoint: 20.0°C (68°F) [RH = 100%]
Pressure (altimeter): 29.82 inches Hg (1010.0 mb)
Winds: calm
Visibility: 0.31 miles (0.50 km)
Ceiling: at least 12,000 feet AGL
Clouds: sky clear below 12,000 feet AGL
Weather: FG  (fog)

METAR text: SARI 190700Z 00000KT 1700 BR NSC 20/20 Q1010
Conditions at: SARI (IGUAZU/CATARATAS, AR) observed 0700 UTC 19 March 2019
Temperature: 20.0°C (68°F)
Dewpoint: 20.0°C (68°F) [RH = 100%]
Pressure (altimeter): 29.82 inches Hg (1010.0 mb)
Winds: calm
Visibility: 1.06 miles (1.71 km)
Ceiling: at least 12,000 feet AGL
Clouds: sky clear below 12,000 feet AGL
Weather: BR  (mist)

METAR text: SARI 190600Z 00000KT 1800 BR NSC 20/20 Q1010
Conditions at: SARI (IGUAZU/CATARATAS, AR) observed 0600 UTC 19 March 2019
Temperature: 20.0°C (68°F)
Dewpoint: 20.0°C (68°F) [RH = 100%]
Pressure (altimeter): 29.82 inches Hg (1010.0 mb)
Winds: calm
Visibility: 1.12 miles (1.80 km)
Ceiling: at least 12,000 feet AGL
Clouds: sky clear below 12,000 feet AGL
Weather: BR  (mist)

METAR text: SARI 190500Z 00000KT 2500 BR NSC 21/21 Q1010
Conditions at: SARI (IGUAZU/CATARATAS, AR) observed 0500 UTC 19 March 2019
Temperature: 21.0°C (70°F)
Dewpoint: 21.0°C (70°F) [RH = 100%]
Pressure (altimeter): 29.82 inches Hg (1010.0 mb)
Winds: calm
Visibility: 1.55 miles (2.49 km)
Ceiling: at least 12,000 feet AGL
Clouds: sky clear below 12,000 feet AGL
Weather: BR  (mist)

METAR text: SARI 190400Z 00000KT 5000 NSC 21/21 Q1010
Conditions at: SARI (IGUAZU/CATARATAS, AR) observed 0400 UTC 19 March 2019
Temperature: 21.0°C (70°F)
Dewpoint: 21.0°C (70°F) [RH = 100%]
Pressure (altimeter): 29.82 inches Hg (1010.0 mb)
Winds: calm
Visibility: 3 miles ( 5 km)
Ceiling: at least 12,000 feet AGL
Clouds: sky clear below 12,000 feet AGL
Weather: no significant weather observed at this time

Forecast for: AMD
Text: TAF AMD SARI 201400Z 2015/2112 20005KT 8000 TSRA FEW010 BKN020 FEW050CB TX27/2019Z TN16/2109Z
Forecast period: 1500 to 1900 UTC 20 March 2019
Forecast type: FROM: standard forecast or significant change
Winds: from the SSW (200 degrees) at 6 MPH (5 knots; 2.6 m/s)
Visibility: 5 miles (8 km)
Ceiling: 2000 feet AGL
Clouds: few clouds at 1000 feet AGL
broken clouds at 2000 feet AGL
few clouds at 5000 feet AGL
Weather: TSRA  (rain associated with thunderstorm(s))
Text: BECMG 2019/2021 9999 BKN025
Forecast period: 1900 UTC 20 March 2019 to 0800 UTC 21 March 2019
Forecast type: BECOMING: Conditions expected to become as follows by 2100 UTC 20 March 2019
Winds: from the SSW (200 degrees) at 6 MPH (5 knots; 2.6 m/s)
Visibility: 6 or more miles 10+ km)
Ceiling: 2500 feet AGL
Clouds: broken clouds at 2500 feet AGL
Weather: TSRA  (rain associated with thunderstorm(s))
Text: BECMG 2108/2109 1500 BR SCT015
Forecast period: 0800 to 1200 UTC 21 March 2019
Forecast type: BECOMING: Conditions expected to become as follows by 0900 UTC 21 March 2019
Winds: from the SSW (200 degrees) at 6 MPH (5 knots; 2.6 m/s)
Visibility: 0.93 miles (1.50 km)
Ceiling: at least 12,000 feet AGL
Clouds: scattered clouds at 1500 feet AGL
Weather: BR  (mist)